sensor_id;sensor_type;location;lat;lon;timestamp;temperature;humidity
21622;DHT22;10973;46.706;12.340;2023-12-22T00:00:05;2.10;99.90
21622;DHT22;10973;46.706;12.340;2023-12-22T00:05:01;2.20;99.90
21622;DHT22;10973;46.706;12.340;2023-12-22T00:07:29;2.20;99.90
21622;DHT22;10973;46.706;12.340;2023-12-22T00:09:56;2.30;99.90
21622;DHT22;10973;46.706;12.340;2023-12-22T00:12:26;2.30;99.90
21622;DHT22;10973;46.706;12.340;2023-12-22T00:14:54;2.30;99.90
21622;DHT22;10973;46.706;12.340;2023-12-22T00:17:22;2.30;99.90
21622;DHT22;10973;46.706;12.340;2023-12-22T00:24:45;2.30;99.90
21622;DHT22;10973;46.706;12.340;2023-12-22T00:27:13;2.30;99.90
21622;DHT22;10973;46.706;12.340;2023-12-22T00:34:37;2.50;99.90
21622;DHT22;10973;46.706;12.340;2023-12-22T00:37:05;2.50;99.90
21622;DHT22;10973;46.706;12.340;2023-12-22T00:39:32;2.60;99.90
21622;DHT22;10973;46.706;12.340;2023-12-22T00:42:00;2.60;99.90
21622;DHT22;10973;46.706;12.340;2023-12-22T00:44:27;2.60;99.90
21622;DHT22;10973;46.706;12.340;2023-12-22T00:49:23;2.70;99.90
21622;DHT22;10973;46.706;12.340;2023-12-22T00:54:19;2.70;99.90
21622;DHT22;10973;46.706;12.340;2023-12-22T00:56:47;2.70;99.90
21622;DHT22;10973;46.706;12.340;2023-12-22T00:59:14;2.70;99.90
21622;DHT22;10973;46.706;12.340;2023-12-22T01:09:07;2.70;99.90
21622;DHT22;10973;46.706;12.340;2023-12-22T01:14:02;2.70;99.90
21622;DHT22;10973;46.706;12.340;2023-12-22T01:16:30;2.70;99.90
21622;DHT22;10973;46.706;12.340;2023-12-22T01:18:58;2.70;99.90
21622;DHT22;10973;46.706;12.340;2023-12-22T01:21:26;2.70;99.90
21622;DHT22;10973;46.706;12.340;2023-12-22T01:28:49;2.90;99.90
21622;DHT22;10973;46.706;12.340;2023-12-22T01:31:16;2.90;99.90
21622;DHT22;10973;46.706;12.340;2023-12-22T01:33:44;2.80;99.90
21622;DHT22;10973;46.706;12.340;2023-12-22T01:36:12;2.80;99.90
21622;DHT22;10973;46.706;12.340;2023-12-22T01:38:39;2.70;99.90
21622;DHT22;10973;46.706;12.340;2023-12-22T01:43:35;2.60;99.90
21622;DHT22;10973;46.706;12.340;2023-12-22T01:46:03;2.60;99.90
21622;DHT22;10973;46.706;12.340;2023-12-22T01:48:31;2.60;99.90
21622;DHT22;10973;46.706;12.340;2023-12-22T01:51:00;2.50;99.90
21622;DHT22;10973;46.706;12.340;2023-12-22T01:53:29;2.60;99.90
21622;DHT22;10973;46.706;12.340;2023-12-22T01:55:59;2.60;99.90
21622;DHT22;10973;46.706;12.340;2023-12-22T01:58:30;2.60;99.90
21622;DHT22;10973;46.706;12.340;2023-12-22T02:01:02;2.60;99.90
21622;DHT22;10973;46.706;12.340;2023-12-22T02:03:31;2.60;99.90
21622;DHT22;10973;46.706;12.340;2023-12-22T02:05:59;2.70;99.90
21622;DHT22;10973;46.706;12.340;2023-12-22T02:08:28;2.70;99.90
21622;DHT22;10973;46.706;12.340;2023-12-22T02:13:28;2.60;99.90
21622;DHT22;10973;46.706;12.340;2023-12-22T02:16:04;2.60;99.90
21622;DHT22;10973;46.706;12.340;2023-12-22T02:18:39;2.70;99.90
21622;DHT22;10973;46.706;12.340;2023-12-22T02:23:39;2.70;99.90
21622;DHT22;10973;46.706;12.340;2023-12-22T02:26:12;2.70;99.90
21622;DHT22;10973;46.706;12.340;2023-12-22T02:28:50;2.70;99.90
21622;DHT22;10973;46.706;12.340;2023-12-22T02:31:40;2.70;99.90
21622;DHT22;10973;46.706;12.340;2023-12-22T02:34:15;2.70;99.90
21622;DHT22;10973;46.706;12.340;2023-12-22T02:36:47;2.70;99.90
21622;DHT22;10973;46.706;12.340;2023-12-22T02:39:18;2.70;99.90
21622;DHT22;10973;46.706;12.340;2023-12-22T02:41:48;2.70;99.90
21622;DHT22;10973;46.706;12.340;2023-12-22T02:44:16;2.70;99.90
21622;DHT22;10973;46.706;12.340;2023-12-22T02:46:44;2.80;99.90
21622;DHT22;10973;46.706;12.340;2023-12-22T02:49:12;2.80;99.90
21622;DHT22;10973;46.706;12.340;2023-12-22T02:51:40;2.80;99.90
21622;DHT22;10973;46.706;12.340;2023-12-22T02:59:03;2.80;99.90
21622;DHT22;10973;46.706;12.340;2023-12-22T03:01:31;2.70;99.90
21622;DHT22;10973;46.706;12.340;2023-12-22T03:03:58;2.70;99.90
21622;DHT22;10973;46.706;12.340;2023-12-22T03:08:54;2.80;99.90
21622;DHT22;10973;46.706;12.340;2023-12-22T03:11:21;2.80;99.90
21622;DHT22;10973;46.706;12.340;2023-12-22T03:13:49;2.80;99.90
21622;DHT22;10973;46.706;12.340;2023-12-22T03:21:19;2.60;99.90
21622;DHT22;10973;46.706;12.340;2023-12-22T03:26:14;2.70;99.90
21622;DHT22;10973;46.706;12.340;2023-12-22T03:28:42;2.60;99.90
21622;DHT22;10973;46.706;12.340;2023-12-22T03:36:07;2.60;99.90
21622;DHT22;10973;46.706;12.340;2023-12-22T03:38:35;2.60;99.90
21622;DHT22;10973;46.706;12.340;2023-12-22T03:41:02;2.60;99.90
21622;DHT22;10973;46.706;12.340;2023-12-22T03:43:30;2.60;99.90
21622;DHT22;10973;46.706;12.340;2023-12-22T03:45:58;2.60;99.90
21622;DHT22;10973;46.706;12.340;2023-12-22T03:48:25;2.60;99.90
21622;DHT22;10973;46.706;12.340;2023-12-22T03:50:53;2.60;99.90
21622;DHT22;10973;46.706;12.340;2023-12-22T03:53:21;2.70;99.90
21622;DHT22;10973;46.706;12.340;2023-12-22T03:58:16;2.70;99.90
21622;DHT22;10973;46.706;12.340;2023-12-22T04:03:12;2.70;99.90
21622;DHT22;10973;46.706;12.340;2023-12-22T04:05:40;2.70;99.90
21622;DHT22;10973;46.706;12.340;2023-12-22T04:08:07;2.70;99.90
21622;DHT22;10973;46.706;12.340;2023-12-22T04:10:35;2.80;99.90
21622;DHT22;10973;46.706;12.340;2023-12-22T04:13:03;2.80;99.90
21622;DHT22;10973;46.706;12.340;2023-12-22T04:15:31;2.80;99.90
21622;DHT22;10973;46.706;12.340;2023-12-22T04:17:58;2.80;99.90
21622;DHT22;10973;46.706;12.340;2023-12-22T04:25:22;2.80;99.90
21622;DHT22;10973;46.706;12.340;2023-12-22T04:27:50;2.80;99.90
21622;DHT22;10973;46.706;12.340;2023-12-22T04:30:18;2.90;99.90
21622;DHT22;10973;46.706;12.340;2023-12-22T04:32:46;2.90;99.90
21622;DHT22;10973;46.706;12.340;2023-12-22T04:35:13;2.80;99.90
21622;DHT22;10973;46.706;12.340;2023-12-22T04:37:41;3.00;99.90
21622;DHT22;10973;46.706;12.340;2023-12-22T04:40:10;3.00;99.90
21622;DHT22;10973;46.706;12.340;2023-12-22T04:45:06;3.00;99.90
21622;DHT22;10973;46.706;12.340;2023-12-22T04:47:33;3.10;99.90
21622;DHT22;10973;46.706;12.340;2023-12-22T04:52:30;3.10;99.90
21622;DHT22;10973;46.706;12.340;2023-12-22T04:59:53;2.90;99.90
21622;DHT22;10973;46.706;12.340;2023-12-22T05:02:21;2.80;99.90
21622;DHT22;10973;46.706;12.340;2023-12-22T05:04:48;2.70;99.90
21622;DHT22;10973;46.706;12.340;2023-12-22T05:09:44;2.50;99.90
21622;DHT22;10973;46.706;12.340;2023-12-22T05:14:40;2.40;99.90
21622;DHT22;10973;46.706;12.340;2023-12-22T05:17:08;2.40;99.90
21622;DHT22;10973;46.706;12.340;2023-12-22T05:19:35;2.30;99.90
21622;DHT22;10973;46.706;12.340;2023-12-22T05:22:03;2.40;99.90
21622;DHT22;10973;46.706;12.340;2023-12-22T05:24:31;2.30;99.90
21622;DHT22;10973;46.706;12.340;2023-12-22T05:31:54;2.50;99.90
21622;DHT22;10973;46.706;12.340;2023-12-22T05:34:22;2.50;99.90
21622;DHT22;10973;46.706;12.340;2023-12-22T05:36:50;2.40;99.90
21622;DHT22;10973;46.706;12.340;2023-12-22T05:41:46;2.30;99.90
21622;DHT22;10973;46.706;12.340;2023-12-22T05:44:13;2.30;99.90
21622;DHT22;10973;46.706;12.340;2023-12-22T05:46:42;2.30;99.90
21622;DHT22;10973;46.706;12.340;2023-12-22T05:51:41;2.20;99.90
21622;DHT22;10973;46.706;12.340;2023-12-22T05:54:09;2.10;99.90
21622;DHT22;10973;46.706;12.340;2023-12-22T05:56:37;2.10;99.90
21622;DHT22;10973;46.706;12.340;2023-12-22T05:59:04;2.00;99.90
21622;DHT22;10973;46.706;12.340;2023-12-22T06:01:32;2.00;99.90
21622;DHT22;10973;46.706;12.340;2023-12-22T06:04:00;2.00;99.90
21622;DHT22;10973;46.706;12.340;2023-12-22T06:06:28;2.00;99.90
21622;DHT22;10973;46.706;12.340;2023-12-22T06:11:24;2.00;99.90
21622;DHT22;10973;46.706;12.340;2023-12-22T06:13:51;2.00;99.90
21622;DHT22;10973;46.706;12.340;2023-12-22T06:16:20;2.10;99.90
21622;DHT22;10973;46.706;12.340;2023-12-22T06:18:47;2.10;99.90
21622;DHT22;10973;46.706;12.340;2023-12-22T06:21:15;2.10;99.90
21622;DHT22;10973;46.706;12.340;2023-12-22T06:23:43;2.20;99.90
21622;DHT22;10973;46.706;12.340;2023-12-22T06:26:11;2.20;99.90
21622;DHT22;10973;46.706;12.340;2023-12-22T06:28:39;2.20;99.90
21622;DHT22;10973;46.706;12.340;2023-12-22T06:31:15;2.20;99.90
21622;DHT22;10973;46.706;12.340;2023-12-22T06:33:45;2.20;99.90
21622;DHT22;10973;46.706;12.340;2023-12-22T06:36:20;2.20;99.90
21622;DHT22;10973;46.706;12.340;2023-12-22T06:38:52;2.10;99.90
21622;DHT22;10973;46.706;12.340;2023-12-22T06:41:28;2.10;99.90
21622;DHT22;10973;46.706;12.340;2023-12-22T06:43:58;2.10;99.90
21622;DHT22;10973;46.706;12.340;2023-12-22T06:46:26;2.00;99.90
21622;DHT22;10973;46.706;12.340;2023-12-22T06:48:56;2.00;99.90
21622;DHT22;10973;46.706;12.340;2023-12-22T06:51:28;2.10;99.90
21622;DHT22;10973;46.706;12.340;2023-12-22T06:53:57;2.00;99.90
21622;DHT22;10973;46.706;12.340;2023-12-22T06:56:26;2.00;99.90
21622;DHT22;10973;46.706;12.340;2023-12-22T06:58:57;2.00;99.90
21622;DHT22;10973;46.706;12.340;2023-12-22T07:01:30;1.90;99.90
21622;DHT22;10973;46.706;12.340;2023-12-22T07:04:02;1.90;99.90
21622;DHT22;10973;46.706;12.340;2023-12-22T07:06:32;1.90;99.90
21622;DHT22;10973;46.706;12.340;2023-12-22T07:11:51;2.00;99.90
21622;DHT22;10973;46.706;12.340;2023-12-22T07:14:19;2.10;99.90
21622;DHT22;10973;46.706;12.340;2023-12-22T07:16:47;2.20;99.90
21622;DHT22;10973;46.706;12.340;2023-12-22T07:19:14;2.30;99.90
21622;DHT22;10973;46.706;12.340;2023-12-22T07:21:42;2.30;99.90
21622;DHT22;10973;46.706;12.340;2023-12-22T07:24:13;2.40;99.90
21622;DHT22;10973;46.706;12.340;2023-12-22T07:26:42;2.40;99.90
21622;DHT22;10973;46.706;12.340;2023-12-22T07:29:10;2.50;99.90
21622;DHT22;10973;46.706;12.340;2023-12-22T07:31:37;2.50;99.90
21622;DHT22;10973;46.706;12.340;2023-12-22T07:34:05;2.50;99.90
21622;DHT22;10973;46.706;12.340;2023-12-22T07:36:35;2.50;99.90
21622;DHT22;10973;46.706;12.340;2023-12-22T07:39:14;2.50;99.90
21622;DHT22;10973;46.706;12.340;2023-12-22T07:41:43;2.40;99.90
21622;DHT22;10973;46.706;12.340;2023-12-22T07:44:11;2.40;99.90
21622;DHT22;10973;46.706;12.340;2023-12-22T07:46:39;2.40;99.90
21622;DHT22;10973;46.706;12.340;2023-12-22T07:49:09;2.40;99.90
21622;DHT22;10973;46.706;12.340;2023-12-22T07:51:37;2.40;99.90
21622;DHT22;10973;46.706;12.340;2023-12-22T07:54:07;2.50;99.90
21622;DHT22;10973;46.706;12.340;2023-12-22T07:56:35;2.50;99.90
21622;DHT22;10973;46.706;12.340;2023-12-22T07:59:03;2.50;99.90
21622;DHT22;10973;46.706;12.340;2023-12-22T08:01:49;2.60;99.90
21622;DHT22;10973;46.706;12.340;2023-12-22T08:04:16;2.50;99.90
21622;DHT22;10973;46.706;12.340;2023-12-22T08:06:44;2.50;99.90
21622;DHT22;10973;46.706;12.340;2023-12-22T08:09:12;2.30;99.90
21622;DHT22;10973;46.706;12.340;2023-12-22T08:11:39;2.30;99.90
21622;DHT22;10973;46.706;12.340;2023-12-22T08:14:07;2.30;99.90
21622;DHT22;10973;46.706;12.340;2023-12-22T08:16:34;2.30;99.90
21622;DHT22;10973;46.706;12.340;2023-12-22T08:19:02;2.30;99.90
21622;DHT22;10973;46.706;12.340;2023-12-22T08:21:30;2.30;99.90
21622;DHT22;10973;46.706;12.340;2023-12-22T08:24:10;2.30;99.90
21622;DHT22;10973;46.706;12.340;2023-12-22T08:26:45;2.30;99.90
21622;DHT22;10973;46.706;12.340;2023-12-22T08:29:12;2.30;99.90
21622;DHT22;10973;46.706;12.340;2023-12-22T08:31:40;2.30;99.90
21622;DHT22;10973;46.706;12.340;2023-12-22T08:34:07;2.20;99.90
21622;DHT22;10973;46.706;12.340;2023-12-22T08:36:35;2.10;99.90
21622;DHT22;10973;46.706;12.340;2023-12-22T08:39:03;2.10;99.90
21622;DHT22;10973;46.706;12.340;2023-12-22T08:41:32;2.20;99.90
21622;DHT22;10973;46.706;12.340;2023-12-22T08:43:59;2.20;99.90
21622;DHT22;10973;46.706;12.340;2023-12-22T08:46:27;2.20;99.90
21622;DHT22;10973;46.706;12.340;2023-12-22T08:48:55;2.30;99.90
21622;DHT22;10973;46.706;12.340;2023-12-22T08:51:22;2.30;99.90
21622;DHT22;10973;46.706;12.340;2023-12-22T08:53:50;2.30;99.90
21622;DHT22;10973;46.706;12.340;2023-12-22T08:56:18;2.30;99.90
21622;DHT22;10973;46.706;12.340;2023-12-22T08:58:46;2.30;99.90
21622;DHT22;10973;46.706;12.340;2023-12-22T09:01:17;2.40;99.90
21622;DHT22;10973;46.706;12.340;2023-12-22T09:03:45;2.40;99.90
21622;DHT22;10973;46.706;12.340;2023-12-22T09:06:21;2.40;99.90
21622;DHT22;10973;46.706;12.340;2023-12-22T09:08:49;2.40;99.90
21622;DHT22;10973;46.706;12.340;2023-12-22T09:11:18;2.40;99.90
21622;DHT22;10973;46.706;12.340;2023-12-22T09:13:47;2.40;99.90
21622;DHT22;10973;46.706;12.340;2023-12-22T09:16:23;2.40;99.90
21622;DHT22;10973;46.706;12.340;2023-12-22T09:18:52;2.40;99.90
21622;DHT22;10973;46.706;12.340;2023-12-22T09:21:19;2.40;99.90
21622;DHT22;10973;46.706;12.340;2023-12-22T09:23:47;2.40;99.90
21622;DHT22;10973;46.706;12.340;2023-12-22T09:26:17;2.40;99.90
21622;DHT22;10973;46.706;12.340;2023-12-22T09:28:45;2.40;99.90
21622;DHT22;10973;46.706;12.340;2023-12-22T09:31:13;2.40;99.90
21622;DHT22;10973;46.706;12.340;2023-12-22T09:33:41;2.40;99.90
21622;DHT22;10973;46.706;12.340;2023-12-22T09:36:09;2.40;99.90
21622;DHT22;10973;46.706;12.340;2023-12-22T09:38:37;2.40;99.90
21622;DHT22;10973;46.706;12.340;2023-12-22T09:41:04;2.40;99.90
21622;DHT22;10973;46.706;12.340;2023-12-22T09:43:35;2.40;99.90
21622;DHT22;10973;46.706;12.340;2023-12-22T09:46:03;2.40;99.90
21622;DHT22;10973;46.706;12.340;2023-12-22T09:48:33;2.30;99.90
21622;DHT22;10973;46.706;12.340;2023-12-22T09:51:03;2.30;99.90
21622;DHT22;10973;46.706;12.340;2023-12-22T09:53:33;2.30;99.90
21622;DHT22;10973;46.706;12.340;2023-12-22T09:56:03;2.30;99.90
21622;DHT22;10973;46.706;12.340;2023-12-22T09:58:32;2.20;99.90
21622;DHT22;10973;46.706;12.340;2023-12-22T10:01:05;2.20;99.90
21622;DHT22;10973;46.706;12.340;2023-12-22T10:03:33;2.30;99.90
21622;DHT22;10973;46.706;12.340;2023-12-22T10:06:01;2.20;99.90
21622;DHT22;10973;46.706;12.340;2023-12-22T10:08:30;2.20;99.90
21622;DHT22;10973;46.706;12.340;2023-12-22T10:10:59;2.20;99.90
21622;DHT22;10973;46.706;12.340;2023-12-22T10:13:27;2.10;99.90
21622;DHT22;10973;46.706;12.340;2023-12-22T10:15:54;2.10;99.90
21622;DHT22;10973;46.706;12.340;2023-12-22T10:18:24;2.10;99.90
21622;DHT22;10973;46.706;12.340;2023-12-22T10:20:51;2.10;99.90
21622;DHT22;10973;46.706;12.340;2023-12-22T10:23:19;2.00;99.90
21622;DHT22;10973;46.706;12.340;2023-12-22T10:25:47;2.00;99.90
21622;DHT22;10973;46.706;12.340;2023-12-22T10:28:14;2.00;99.90
21622;DHT22;10973;46.706;12.340;2023-12-22T10:30:44;2.00;99.90
21622;DHT22;10973;46.706;12.340;2023-12-22T10:33:12;2.00;99.90
21622;DHT22;10973;46.706;12.340;2023-12-22T10:35:41;2.00;99.90
21622;DHT22;10973;46.706;12.340;2023-12-22T10:38:09;1.90;99.90
21622;DHT22;10973;46.706;12.340;2023-12-22T10:40:37;1.80;99.90
21622;DHT22;10973;46.706;12.340;2023-12-22T10:43:05;1.90;99.90
21622;DHT22;10973;46.706;12.340;2023-12-22T10:45:32;1.90;99.90
21622;DHT22;10973;46.706;12.340;2023-12-22T10:48:00;1.90;99.90
21622;DHT22;10973;46.706;12.340;2023-12-22T10:50:28;1.90;99.90
21622;DHT22;10973;46.706;12.340;2023-12-22T10:52:56;1.90;99.90
21622;DHT22;10973;46.706;12.340;2023-12-22T10:55:24;2.00;99.90
21622;DHT22;10973;46.706;12.340;2023-12-22T10:57:51;2.00;99.90
21622;DHT22;10973;46.706;12.340;2023-12-22T11:00:20;1.90;99.90
21622;DHT22;10973;46.706;12.340;2023-12-22T11:02:49;1.90;99.90
21622;DHT22;10973;46.706;12.340;2023-12-22T11:05:27;2.00;99.90
21622;DHT22;10973;46.706;12.340;2023-12-22T11:07:59;2.00;99.90
21622;DHT22;10973;46.706;12.340;2023-12-22T11:10:31;2.00;99.90
21622;DHT22;10973;46.706;12.340;2023-12-22T11:13:00;2.00;99.90
21622;DHT22;10973;46.706;12.340;2023-12-22T11:15:30;2.00;99.90
21622;DHT22;10973;46.706;12.340;2023-12-22T11:18:01;2.00;99.90
21622;DHT22;10973;46.706;12.340;2023-12-22T11:20:32;2.00;99.90
21622;DHT22;10973;46.706;12.340;2023-12-22T11:23:02;2.00;99.90
21622;DHT22;10973;46.706;12.340;2023-12-22T11:25:31;2.00;99.90
21622;DHT22;10973;46.706;12.340;2023-12-22T11:28:00;2.00;99.90
21622;DHT22;10973;46.706;12.340;2023-12-22T11:30:31;1.90;99.90
21622;DHT22;10973;46.706;12.340;2023-12-22T11:32:59;1.90;99.90
21622;DHT22;10973;46.706;12.340;2023-12-22T11:35:29;1.90;99.90
21622;DHT22;10973;46.706;12.340;2023-12-22T11:38:01;1.90;99.90
21622;DHT22;10973;46.706;12.340;2023-12-22T11:40:29;1.90;99.90
21622;DHT22;10973;46.706;12.340;2023-12-22T11:42:56;1.90;99.90
21622;DHT22;10973;46.706;12.340;2023-12-22T11:45:30;1.90;99.90
21622;DHT22;10973;46.706;12.340;2023-12-22T11:48:08;1.90;99.90
21622;DHT22;10973;46.706;12.340;2023-12-22T11:50:37;1.90;99.90
21622;DHT22;10973;46.706;12.340;2023-12-22T11:53:25;1.90;99.90
21622;DHT22;10973;46.706;12.340;2023-12-22T11:56:04;2.00;99.90
21622;DHT22;10973;46.706;12.340;2023-12-22T11:58:42;2.00;99.90
21622;DHT22;10973;46.706;12.340;2023-12-22T12:01:12;2.00;99.90
21622;DHT22;10973;46.706;12.340;2023-12-22T12:03:42;2.00;99.90
21622;DHT22;10973;46.706;12.340;2023-12-22T12:06:23;1.90;99.90
21622;DHT22;10973;46.706;12.340;2023-12-22T12:09:04;1.90;99.90
21622;DHT22;10973;46.706;12.340;2023-12-22T12:14:25;1.90;99.90
21622;DHT22;10973;46.706;12.340;2023-12-22T12:17:06;1.90;99.90
21622;DHT22;10973;46.706;12.340;2023-12-22T12:19:37;1.90;99.90
21622;DHT22;10973;46.706;12.340;2023-12-22T12:22:05;1.90;99.90
21622;DHT22;10973;46.706;12.340;2023-12-22T12:24:33;1.80;99.90
21622;DHT22;10973;46.706;12.340;2023-12-22T12:27:03;1.80;99.90
21622;DHT22;10973;46.706;12.340;2023-12-22T12:29:34;1.90;99.90
21622;DHT22;10973;46.706;12.340;2023-12-22T12:32:05;1.90;99.90
21622;DHT22;10973;46.706;12.340;2023-12-22T12:34:33;1.90;99.90
21622;DHT22;10973;46.706;12.340;2023-12-22T12:37:01;1.90;99.90
21622;DHT22;10973;46.706;12.340;2023-12-22T12:39:30;1.90;99.90
21622;DHT22;10973;46.706;12.340;2023-12-22T12:42:01;1.90;99.90
21622;DHT22;10973;46.706;12.340;2023-12-22T12:44:30;1.90;99.90
21622;DHT22;10973;46.706;12.340;2023-12-22T12:46:58;1.90;99.90
21622;DHT22;10973;46.706;12.340;2023-12-22T12:49:25;1.90;99.90
21622;DHT22;10973;46.706;12.340;2023-12-22T12:51:53;1.90;99.90
21622;DHT22;10973;46.706;12.340;2023-12-22T12:54:21;1.90;99.90
21622;DHT22;10973;46.706;12.340;2023-12-22T12:56:48;1.90;99.90
21622;DHT22;10973;46.706;12.340;2023-12-22T12:59:17;1.90;99.90
21622;DHT22;10973;46.706;12.340;2023-12-22T13:01:46;2.00;99.90
21622;DHT22;10973;46.706;12.340;2023-12-22T13:04:16;2.00;99.90
21622;DHT22;10973;46.706;12.340;2023-12-22T13:09:13;2.00;99.90
21622;DHT22;10973;46.706;12.340;2023-12-22T13:11:42;2.00;99.90
21622;DHT22;10973;46.706;12.340;2023-12-22T13:14:10;2.00;99.90
21622;DHT22;10973;46.706;12.340;2023-12-22T13:16:39;2.10;99.90
21622;DHT22;10973;46.706;12.340;2023-12-22T13:19:07;2.00;99.90
21622;DHT22;10973;46.706;12.340;2023-12-22T13:21:35;2.10;99.90
21622;DHT22;10973;46.706;12.340;2023-12-22T13:24:13;2.10;99.90
21622;DHT22;10973;46.706;12.340;2023-12-22T13:26:45;2.20;99.90
21622;DHT22;10973;46.706;12.340;2023-12-22T13:29:13;2.20;99.90
21622;DHT22;10973;46.706;12.340;2023-12-22T13:31:41;2.20;99.90
21622;DHT22;10973;46.706;12.340;2023-12-22T13:34:10;2.20;99.90
21622;DHT22;10973;46.706;12.340;2023-12-22T13:36:39;2.20;99.90
21622;DHT22;10973;46.706;12.340;2023-12-22T13:39:09;2.30;99.90
21622;DHT22;10973;46.706;12.340;2023-12-22T13:41:41;2.30;99.90
21622;DHT22;10973;46.706;12.340;2023-12-22T13:44:09;2.30;99.90
21622;DHT22;10973;46.706;12.340;2023-12-22T13:46:37;2.20;99.90
21622;DHT22;10973;46.706;12.340;2023-12-22T13:49:09;2.20;99.90
21622;DHT22;10973;46.706;12.340;2023-12-22T13:51:45;2.50;99.90
21622;DHT22;10973;46.706;12.340;2023-12-22T13:54:12;2.20;99.90
21622;DHT22;10973;46.706;12.340;2023-12-22T13:59:11;2.20;99.90
21622;DHT22;10973;46.706;12.340;2023-12-22T14:01:39;2.20;99.90
21622;DHT22;10973;46.706;12.340;2023-12-22T14:04:07;2.30;99.90
21622;DHT22;10973;46.706;12.340;2023-12-22T14:06:35;2.30;99.90
21622;DHT22;10973;46.706;12.340;2023-12-22T14:09:06;2.30;99.90
21622;DHT22;10973;46.706;12.340;2023-12-22T14:11:34;2.30;99.90
21622;DHT22;10973;46.706;12.340;2023-12-22T14:14:01;2.30;99.90
21622;DHT22;10973;46.706;12.340;2023-12-22T14:16:29;2.30;99.90
21622;DHT22;10973;46.706;12.340;2023-12-22T14:21:25;2.40;99.90
21622;DHT22;10973;46.706;12.340;2023-12-22T14:28:49;2.30;99.90
21622;DHT22;10973;46.706;12.340;2023-12-22T14:33:45;2.20;99.90
21622;DHT22;10973;46.706;12.340;2023-12-22T14:36:13;2.30;99.90
21622;DHT22;10973;46.706;12.340;2023-12-22T14:38:41;2.20;99.90
21622;DHT22;10973;46.706;12.340;2023-12-22T14:41:08;2.20;99.90
21622;DHT22;10973;46.706;12.340;2023-12-22T14:43:38;2.30;99.90
21622;DHT22;10973;46.706;12.340;2023-12-22T14:46:06;2.20;99.90
21622;DHT22;10973;46.706;12.340;2023-12-22T14:48:34;2.30;99.90
21622;DHT22;10973;46.706;12.340;2023-12-22T14:51:01;2.20;99.90
21622;DHT22;10973;46.706;12.340;2023-12-22T14:53:29;2.20;99.90
21622;DHT22;10973;46.706;12.340;2023-12-22T14:55:57;2.30;99.90
21622;DHT22;10973;46.706;12.340;2023-12-22T14:58:25;2.30;99.90
21622;DHT22;10973;46.706;12.340;2023-12-22T15:00:53;2.20;99.90
21622;DHT22;10973;46.706;12.340;2023-12-22T15:03:21;2.20;99.90
21622;DHT22;10973;46.706;12.340;2023-12-22T15:05:49;2.20;99.90
21622;DHT22;10973;46.706;12.340;2023-12-22T15:10:54;2.10;99.90
21622;DHT22;10973;46.706;12.340;2023-12-22T15:18:21;2.20;99.90
21622;DHT22;10973;46.706;12.340;2023-12-22T15:23:17;2.10;99.90
21622;DHT22;10973;46.706;12.340;2023-12-22T15:25:45;2.10;99.90
21622;DHT22;10973;46.706;12.340;2023-12-22T15:28:12;1.90;99.90
21622;DHT22;10973;46.706;12.340;2023-12-22T15:30:40;2.10;99.90
21622;DHT22;10973;46.706;12.340;2023-12-22T15:33:08;2.00;99.90
21622;DHT22;10973;46.706;12.340;2023-12-22T15:35:36;2.00;99.90
21622;DHT22;10973;46.706;12.340;2023-12-22T15:38:06;2.00;99.90
21622;DHT22;10973;46.706;12.340;2023-12-22T15:40:34;2.00;99.90
21622;DHT22;10973;46.706;12.340;2023-12-22T15:43:03;2.00;99.90
21622;DHT22;10973;46.706;12.340;2023-12-22T15:45:31;2.00;99.90
21622;DHT22;10973;46.706;12.340;2023-12-22T15:47:59;2.00;99.90
21622;DHT22;10973;46.706;12.340;2023-12-22T15:50:27;2.00;99.90
21622;DHT22;10973;46.706;12.340;2023-12-22T15:55:32;2.10;99.90
21622;DHT22;10973;46.706;12.340;2023-12-22T15:58:23;2.10;99.90
21622;DHT22;10973;46.706;12.340;2023-12-22T16:01:23;2.20;99.90
21622;DHT22;10973;46.706;12.340;2023-12-22T16:04:31;2.20;99.90
21622;DHT22;10973;46.706;12.340;2023-12-22T16:07:35;2.30;99.90
21622;DHT22;10973;46.706;12.340;2023-12-22T16:10:39;2.40;99.90
21622;DHT22;10973;46.706;12.340;2023-12-22T16:13:44;2.50;99.90
21622;DHT22;10973;46.706;12.340;2023-12-22T16:16:43;2.60;99.90
21622;DHT22;10973;46.706;12.340;2023-12-22T16:19:50;2.60;99.90
21622;DHT22;10973;46.706;12.340;2023-12-22T16:22:53;2.70;99.90
21622;DHT22;10973;46.706;12.340;2023-12-22T16:26:24;2.70;99.90
21622;DHT22;10973;46.706;12.340;2023-12-22T16:29:43;2.80;99.90
21622;DHT22;10973;46.706;12.340;2023-12-22T16:32:52;2.80;99.90
21622;DHT22;10973;46.706;12.340;2023-12-22T16:36:07;2.90;99.90
21622;DHT22;10973;46.706;12.340;2023-12-22T16:39:09;2.80;99.90
21622;DHT22;10973;46.706;12.340;2023-12-22T16:41:55;2.80;99.90
21622;DHT22;10973;46.706;12.340;2023-12-22T16:44:55;2.80;99.90
21622;DHT22;10973;46.706;12.340;2023-12-22T16:47:53;2.80;99.90
21622;DHT22;10973;46.706;12.340;2023-12-22T16:50:43;2.80;99.90
21622;DHT22;10973;46.706;12.340;2023-12-22T16:53:30;2.90;99.90
21622;DHT22;10973;46.706;12.340;2023-12-22T16:55:58;2.70;99.90
21622;DHT22;10973;46.706;12.340;2023-12-22T16:58:26;2.70;99.90
21622;DHT22;10973;46.706;12.340;2023-12-22T17:00:54;2.80;99.90
21622;DHT22;10973;46.706;12.340;2023-12-22T17:03:24;2.80;99.90
21622;DHT22;10973;46.706;12.340;2023-12-22T17:05:53;2.90;99.90
21622;DHT22;10973;46.706;12.340;2023-12-22T17:13:17;2.90;99.90
21622;DHT22;10973;46.706;12.340;2023-12-22T17:15:45;2.90;99.90
21622;DHT22;10973;46.706;12.340;2023-12-22T17:18:13;2.90;99.90
21622;DHT22;10973;46.706;12.340;2023-12-22T17:23:25;3.00;99.90
21622;DHT22;10973;46.706;12.340;2023-12-22T17:33:19;2.90;99.90
21622;DHT22;10973;46.706;12.340;2023-12-22T17:35:48;3.00;99.90
21622;DHT22;10973;46.706;12.340;2023-12-22T17:43:13;2.90;99.90
21622;DHT22;10973;46.706;12.340;2023-12-22T17:45:41;2.80;99.90
21622;DHT22;10973;46.706;12.340;2023-12-22T17:48:08;2.70;99.90
21622;DHT22;10973;46.706;12.340;2023-12-22T17:50:36;2.70;99.90
21622;DHT22;10973;46.706;12.340;2023-12-22T17:53:03;2.70;99.90
21622;DHT22;10973;46.706;12.340;2023-12-22T17:55:31;2.60;99.90
21622;DHT22;10973;46.706;12.340;2023-12-22T17:57:59;2.60;99.90
21622;DHT22;10973;46.706;12.340;2023-12-22T18:00:26;2.60;99.90
21622;DHT22;10973;46.706;12.340;2023-12-22T18:02:54;2.60;99.90
21622;DHT22;10973;46.706;12.340;2023-12-22T18:05:22;2.70;99.90
21622;DHT22;10973;46.706;12.340;2023-12-22T18:07:50;2.60;99.90
21622;DHT22;10973;46.706;12.340;2023-12-22T18:10:18;2.60;99.90
21622;DHT22;10973;46.706;12.340;2023-12-22T18:12:46;2.60;99.90
21622;DHT22;10973;46.706;12.340;2023-12-22T18:15:14;2.60;99.90
21622;DHT22;10973;46.706;12.340;2023-12-22T18:17:42;2.50;99.90
21622;DHT22;10973;46.706;12.340;2023-12-22T18:20:10;2.50;99.90